sensor_id;sensor_type;location;lat;lon;timestamp;P1;durP1;ratioP1;P2;durP2;ratioP2
32874;SDS011;40468;42.128;24.750;2023-05-10T00:00:33;9.32;;;4.30;;
32874;SDS011;40468;42.128;24.750;2023-05-10T00:02:05;7.45;;;3.85;;
32874;SDS011;40468;42.128;24.750;2023-05-10T00:03:36;10.63;;;4.25;;
32874;SDS011;40468;42.128;24.750;2023-05-10T00:05:08;9.02;;;4.47;;
32874;SDS011;40468;42.128;24.750;2023-05-10T00:06:39;9.25;;;4.72;;
32874;SDS011;40468;42.128;24.750;2023-05-10T00:08:11;8.25;;;4.68;;
32874;SDS011;40468;42.128;24.750;2023-05-10T00:09:45;9.07;;;4.60;;
32874;SDS011;40468;42.128;24.750;2023-05-10T00:11:15;8.85;;;4.47;;
32874;SDS011;40468;42.128;24.750;2023-05-10T00:12:47;8.73;;;4.40;;
32874;SDS011;40468;42.128;24.750;2023-05-10T00:14:19;8.13;;;4.20;;
32874;SDS011;40468;42.128;24.750;2023-05-10T00:15:51;9.82;;;4.40;;
32874;SDS011;40468;42.128;24.750;2023-05-10T00:17:22;9.27;;;4.40;;
32874;SDS011;40468;42.128;24.750;2023-05-10T00:18:54;7.90;;;4.78;;
32874;SDS011;40468;42.128;24.750;2023-05-10T00:20:25;7.45;;;4.10;;
32874;SDS011;40468;42.128;24.750;2023-05-10T00:21:57;9.32;;;4.57;;
32874;SDS011;40468;42.128;24.750;2023-05-10T00:23:29;10.90;;;4.40;;
32874;SDS011;40468;42.128;24.750;2023-05-10T00:25:02;11.80;;;4.72;;
32874;SDS011;40468;42.128;24.750;2023-05-10T00:26:34;10.13;;;4.63;;
32874;SDS011;40468;42.128;24.750;2023-05-10T00:28:07;11.13;;;4.97;;
32874;SDS011;40468;42.128;24.750;2023-05-10T00:29:39;15.07;;;5.75;;
32874;SDS011;40468;42.128;24.750;2023-05-10T00:31:11;8.93;;;4.65;;
32874;SDS011;40468;42.128;24.750;2023-05-10T00:32:43;12.35;;;4.88;;
32874;SDS011;40468;42.128;24.750;2023-05-10T00:34:13;8.95;;;4.97;;
32874;SDS011;40468;42.128;24.750;2023-05-10T00:35:45;13.60;;;6.13;;
32874;SDS011;40468;42.128;24.750;2023-05-10T00:37:16;9.70;;;5.00;;
32874;SDS011;40468;42.128;24.750;2023-05-10T00:38:48;7.18;;;4.22;;
32874;SDS011;40468;42.128;24.750;2023-05-10T00:40:21;8.38;;;5.43;;
32874;SDS011;40468;42.128;24.750;2023-05-10T00:41:52;9.05;;;5.15;;
32874;SDS011;40468;42.128;24.750;2023-05-10T00:43:24;8.90;;;4.43;;
32874;SDS011;40468;42.128;24.750;2023-05-10T00:44:56;11.05;;;5.28;;
32874;SDS011;40468;42.128;24.750;2023-05-10T00:46:28;10.32;;;4.57;;
32874;SDS011;40468;42.128;24.750;2023-05-10T00:48:01;11.05;;;5.30;;
32874;SDS011;40468;42.128;24.750;2023-05-10T00:49:34;17.20;;;5.47;;
32874;SDS011;40468;42.128;24.750;2023-05-10T00:51:06;8.02;;;4.47;;
32874;SDS011;40468;42.128;24.750;2023-05-10T00:52:39;10.50;;;4.90;;
32874;SDS011;40468;42.128;24.750;2023-05-10T00:54:12;9.30;;;4.68;;
32874;SDS011;40468;42.128;24.750;2023-05-10T00:55:47;9.23;;;5.00;;
32874;SDS011;40468;42.128;24.750;2023-05-10T00:57:19;9.88;;;5.43;;
32874;SDS011;40468;42.128;24.750;2023-05-10T00:58:51;8.05;;;4.40;;
32874;SDS011;40468;42.128;24.750;2023-05-10T01:00:23;9.32;;;4.35;;
32874;SDS011;40468;42.128;24.750;2023-05-10T01:01:54;8.55;;;4.55;;
32874;SDS011;40468;42.128;24.750;2023-05-10T01:03:26;9.73;;;4.50;;
32874;SDS011;40468;42.128;24.750;2023-05-10T01:04:59;10.35;;;4.38;;
32874;SDS011;40468;42.128;24.750;2023-05-10T01:06:33;12.73;;;5.20;;
32874;SDS011;40468;42.128;24.750;2023-05-10T01:08:05;13.77;;;5.65;;
32874;SDS011;40468;42.128;24.750;2023-05-10T01:09:38;9.73;;;4.70;;
32874;SDS011;40468;42.128;24.750;2023-05-10T01:11:11;8.90;;;4.38;;
32874;SDS011;40468;42.128;24.750;2023-05-10T01:12:43;9.18;;;4.68;;
32874;SDS011;40468;42.128;24.750;2023-05-10T01:14:16;10.68;;;4.20;;
32874;SDS011;40468;42.128;24.750;2023-05-10T01:15:50;7.97;;;4.30;;
32874;SDS011;40468;42.128;24.750;2023-05-10T01:17:22;14.38;;;4.63;;
32874;SDS011;40468;42.128;24.750;2023-05-10T01:18:54;10.07;;;4.85;;
32874;SDS011;40468;42.128;24.750;2023-05-10T01:20:26;9.88;;;4.55;;
32874;SDS011;40468;42.128;24.750;2023-05-10T01:22:10;11.20;;;5.10;;
32874;SDS011;40468;42.128;24.750;2023-05-10T01:28:19;18.30;;;6.25;;
32874;SDS011;40468;42.128;24.750;2023-05-10T01:32:22;10.35;;;5.38;;
32874;SDS011;40468;42.128;24.750;2023-05-10T01:33:59;15.98;;;5.40;;
32874;SDS011;40468;42.128;24.750;2023-05-10T01:35:37;23.23;;;6.43;;
32874;SDS011;40468;42.128;24.750;2023-05-10T01:37:13;15.77;;;5.68;;
32874;SDS011;40468;42.128;24.750;2023-05-10T01:38:49;10.38;;;5.80;;
32874;SDS011;40468;42.128;24.750;2023-05-10T01:40:25;12.27;;;6.07;;
32874;SDS011;40468;42.128;24.750;2023-05-10T01:42:03;13.00;;;6.57;;
32874;SDS011;40468;42.128;24.750;2023-05-10T01:43:40;11.30;;;6.35;;
32874;SDS011;40468;42.128;24.750;2023-05-10T01:45:21;13.02;;;6.20;;
32874;SDS011;40468;42.128;24.750;2023-05-10T01:47:01;11.25;;;6.88;;
32874;SDS011;40468;42.128;24.750;2023-05-10T01:48:38;13.15;;;6.93;;
32874;SDS011;40468;42.128;24.750;2023-05-10T01:50:17;9.68;;;6.45;;
32874;SDS011;40468;42.128;24.750;2023-05-10T01:51:53;15.93;;;7.25;;
32874;SDS011;40468;42.128;24.750;2023-05-10T01:53:30;12.15;;;6.38;;
32874;SDS011;40468;42.128;24.750;2023-05-10T01:55:05;15.35;;;7.53;;
32874;SDS011;40468;42.128;24.750;2023-05-10T01:56:38;12.07;;;7.07;;
32874;SDS011;40468;42.128;24.750;2023-05-10T01:58:13;13.75;;;7.60;;
32874;SDS011;40468;42.128;24.750;2023-05-10T01:59:47;12.05;;;7.38;;
32874;SDS011;40468;42.128;24.750;2023-05-10T02:01:22;15.38;;;7.60;;
32874;SDS011;40468;42.128;24.750;2023-05-10T02:02:57;15.73;;;7.20;;
32874;SDS011;40468;42.128;24.750;2023-05-10T02:04:32;16.70;;;7.22;;
32874;SDS011;40468;42.128;24.750;2023-05-10T02:06:07;16.30;;;7.70;;
32874;SDS011;40468;42.128;24.750;2023-05-10T02:07:41;11.45;;;6.63;;
32874;SDS011;40468;42.128;24.750;2023-05-10T02:09:14;14.05;;;7.78;;
32874;SDS011;40468;42.128;24.750;2023-05-10T02:10:48;13.90;;;7.15;;
32874;SDS011;40468;42.128;24.750;2023-05-10T02:12:21;16.52;;;7.45;;
32874;SDS011;40468;42.128;24.750;2023-05-10T02:13:55;11.82;;;7.97;;
32874;SDS011;40468;42.128;24.750;2023-05-10T02:15:29;14.38;;;7.50;;
32874;SDS011;40468;42.128;24.750;2023-05-10T02:17:01;14.20;;;7.60;;
32874;SDS011;40468;42.128;24.750;2023-05-10T02:18:34;13.85;;;7.30;;
32874;SDS011;40468;42.128;24.750;2023-05-10T02:20:09;11.75;;;7.20;;
32874;SDS011;40468;42.128;24.750;2023-05-10T02:21:41;10.98;;;7.25;;
32874;SDS011;40468;42.128;24.750;2023-05-10T02:23:15;11.55;;;7.13;;
32874;SDS011;40468;42.128;24.750;2023-05-10T02:24:49;13.32;;;6.88;;
32874;SDS011;40468;42.128;24.750;2023-05-10T02:26:22;16.90;;;8.07;;
32874;SDS011;40468;42.128;24.750;2023-05-10T02:29:28;11.75;;;7.10;;
32874;SDS011;40468;42.128;24.750;2023-05-10T02:31:01;12.85;;;7.57;;
32874;SDS011;40468;42.128;24.750;2023-05-10T02:32:34;15.93;;;7.90;;
32874;SDS011;40468;42.128;24.750;2023-05-10T02:34:06;12.98;;;7.35;;
32874;SDS011;40468;42.128;24.750;2023-05-10T02:35:41;12.57;;;6.78;;
32874;SDS011;40468;42.128;24.750;2023-05-10T02:37:12;15.45;;;7.10;;
32874;SDS011;40468;42.128;24.750;2023-05-10T02:40:18;16.95;;;6.70;;
32874;SDS011;40468;42.128;24.750;2023-05-10T02:43:25;14.82;;;6.55;;
32874;SDS011;40468;42.128;24.750;2023-05-10T02:44:59;15.13;;;6.78;;
32874;SDS011;40468;42.128;24.750;2023-05-10T02:46:33;13.18;;;6.80;;
32874;SDS011;40468;42.128;24.750;2023-05-10T02:48:05;15.07;;;7.53;;
32874;SDS011;40468;42.128;24.750;2023-05-10T02:49:36;13.20;;;6.40;;
32874;SDS011;40468;42.128;24.750;2023-05-10T02:51:10;15.38;;;6.90;;
32874;SDS011;40468;42.128;24.750;2023-05-10T02:52:46;14.88;;;6.72;;
32874;SDS011;40468;42.128;24.750;2023-05-10T02:54:24;16.10;;;7.18;;
32874;SDS011;40468;42.128;24.750;2023-05-10T02:56:04;14.38;;;6.35;;
32874;SDS011;40468;42.128;24.750;2023-05-10T02:57:45;11.88;;;6.63;;
32874;SDS011;40468;42.128;24.750;2023-05-10T02:59:22;11.20;;;5.93;;
32874;SDS011;40468;42.128;24.750;2023-05-10T03:00:54;11.75;;;6.45;;
32874;SDS011;40468;42.128;24.750;2023-05-10T03:02:25;9.55;;;6.05;;
32874;SDS011;40468;42.128;24.750;2023-05-10T03:03:58;14.15;;;7.00;;
32874;SDS011;40468;42.128;24.750;2023-05-10T03:05:30;14.40;;;7.20;;
32874;SDS011;40468;42.128;24.750;2023-05-10T03:07:02;15.25;;;7.10;;
32874;SDS011;40468;42.128;24.750;2023-05-10T03:10:06;16.55;;;7.00;;
32874;SDS011;40468;42.128;24.750;2023-05-10T03:11:42;12.05;;;6.63;;
32874;SDS011;40468;42.128;24.750;2023-05-10T03:13:21;12.88;;;6.63;;
32874;SDS011;40468;42.128;24.750;2023-05-10T03:15:01;15.73;;;6.70;;
32874;SDS011;40468;42.128;24.750;2023-05-10T03:16:40;14.60;;;6.95;;
32874;SDS011;40468;42.128;24.750;2023-05-10T03:18:18;11.20;;;6.63;;
32874;SDS011;40468;42.128;24.750;2023-05-10T03:19:54;14.52;;;7.22;;
32874;SDS011;40468;42.128;24.750;2023-05-10T03:21:28;12.05;;;7.25;;
32874;SDS011;40468;42.128;24.750;2023-05-10T03:23:04;12.38;;;7.18;;
32874;SDS011;40468;42.128;24.750;2023-05-10T03:24:42;14.73;;;6.82;;
32874;SDS011;40468;42.128;24.750;2023-05-10T03:26:17;13.30;;;7.05;;
32874;SDS011;40468;42.128;24.750;2023-05-10T03:27:50;14.75;;;7.32;;
32874;SDS011;40468;42.128;24.750;2023-05-10T03:29:24;15.80;;;7.22;;
32874;SDS011;40468;42.128;24.750;2023-05-10T03:30:58;13.10;;;6.70;;
32874;SDS011;40468;42.128;24.750;2023-05-10T03:32:30;12.82;;;6.40;;
32874;SDS011;40468;42.128;24.750;2023-05-10T03:35:35;14.25;;;6.93;;
32874;SDS011;40468;42.128;24.750;2023-05-10T03:37:07;12.43;;;7.05;;
32874;SDS011;40468;42.128;24.750;2023-05-10T03:38:40;10.88;;;7.13;;
32874;SDS011;40468;42.128;24.750;2023-05-10T03:40:12;16.45;;;7.43;;
32874;SDS011;40468;42.128;24.750;2023-05-10T03:41:44;13.90;;;7.20;;
32874;SDS011;40468;42.128;24.750;2023-05-10T03:43:16;25.17;;;10.23;;
32874;SDS011;40468;42.128;24.750;2023-05-10T03:44:46;20.13;;;8.60;;
32874;SDS011;40468;42.128;24.750;2023-05-10T03:46:19;17.40;;;8.23;;
32874;SDS011;40468;42.128;24.750;2023-05-10T03:47:51;13.82;;;7.68;;
32874;SDS011;40468;42.128;24.750;2023-05-10T03:49:23;15.70;;;7.95;;
32874;SDS011;40468;42.128;24.750;2023-05-10T03:50:55;18.85;;;8.00;;
32874;SDS011;40468;42.128;24.750;2023-05-10T03:52:27;20.05;;;8.13;;
32874;SDS011;40468;42.128;24.750;2023-05-10T03:54:00;14.68;;;7.25;;
32874;SDS011;40468;42.128;24.750;2023-05-10T03:55:31;16.25;;;7.03;;
32874;SDS011;40468;42.128;24.750;2023-05-10T03:57:04;13.55;;;7.25;;
32874;SDS011;40468;42.128;24.750;2023-05-10T03:58:36;21.40;;;11.80;;
32874;SDS011;40468;42.128;24.750;2023-05-10T04:00:07;24.77;;;15.32;;
32874;SDS011;40468;42.128;24.750;2023-05-10T04:01:40;14.77;;;9.45;;
32874;SDS011;40468;42.128;24.750;2023-05-10T04:03:12;14.93;;;9.43;;
32874;SDS011;40468;42.128;24.750;2023-05-10T04:04:44;15.73;;;8.65;;
32874;SDS011;40468;42.128;24.750;2023-05-10T04:06:16;16.42;;;7.35;;
32874;SDS011;40468;42.128;24.750;2023-05-10T04:07:46;19.02;;;8.35;;
32874;SDS011;40468;42.128;24.750;2023-05-10T04:09:20;18.13;;;9.33;;
32874;SDS011;40468;42.128;24.750;2023-05-10T04:10:52;14.75;;;7.22;;
32874;SDS011;40468;42.128;24.750;2023-05-10T04:12:24;21.05;;;13.95;;
32874;SDS011;40468;42.128;24.750;2023-05-10T04:13:56;11.95;;;7.80;;
32874;SDS011;40468;42.128;24.750;2023-05-10T04:15:28;15.13;;;7.88;;
32874;SDS011;40468;42.128;24.750;2023-05-10T04:17:00;12.93;;;8.95;;
32874;SDS011;40468;42.128;24.750;2023-05-10T04:18:32;16.15;;;9.90;;
32874;SDS011;40468;42.128;24.750;2023-05-10T04:20:04;20.25;;;7.80;;
32874;SDS011;40468;42.128;24.750;2023-05-10T04:23:09;13.43;;;7.88;;
32874;SDS011;40468;42.128;24.750;2023-05-10T04:24:41;19.83;;;7.00;;
32874;SDS011;40468;42.128;24.750;2023-05-10T04:26:13;18.98;;;7.95;;
32874;SDS011;40468;42.128;24.750;2023-05-10T04:27:45;18.45;;;7.00;;
32874;SDS011;40468;42.128;24.750;2023-05-10T04:29:16;12.02;;;6.93;;
32874;SDS011;40468;42.128;24.750;2023-05-10T04:30:48;11.63;;;6.75;;
32874;SDS011;40468;42.128;24.750;2023-05-10T04:32:20;18.83;;;8.02;;
32874;SDS011;40468;42.128;24.750;2023-05-10T04:33:51;15.85;;;7.75;;
32874;SDS011;40468;42.128;24.750;2023-05-10T04:35:23;21.23;;;10.32;;
32874;SDS011;40468;42.128;24.750;2023-05-10T04:36:55;29.10;;;10.55;;
32874;SDS011;40468;42.128;24.750;2023-05-10T04:38:26;25.15;;;13.48;;
32874;SDS011;40468;42.128;24.750;2023-05-10T04:40:00;26.85;;;14.27;;
32874;SDS011;40468;42.128;24.750;2023-05-10T04:41:33;21.25;;;9.63;;
32874;SDS011;40468;42.128;24.750;2023-05-10T04:43:03;13.63;;;7.28;;
32874;SDS011;40468;42.128;24.750;2023-05-10T04:44:35;13.95;;;7.20;;
32874;SDS011;40468;42.128;24.750;2023-05-10T04:46:07;18.58;;;7.38;;
32874;SDS011;40468;42.128;24.750;2023-05-10T04:47:39;18.50;;;9.73;;
32874;SDS011;40468;42.128;24.750;2023-05-10T04:49:11;26.63;;;11.23;;
32874;SDS011;40468;42.128;24.750;2023-05-10T04:50:44;18.30;;;6.80;;
32874;SDS011;40468;42.128;24.750;2023-05-10T04:52:15;11.57;;;6.75;;
32874;SDS011;40468;42.128;24.750;2023-05-10T04:53:48;11.90;;;5.47;;
32874;SDS011;40468;42.128;24.750;2023-05-10T04:55:22;16.45;;;6.38;;
32874;SDS011;40468;42.128;24.750;2023-05-10T04:56:54;12.15;;;5.93;;
32874;SDS011;40468;42.128;24.750;2023-05-10T04:58:26;10.73;;;5.95;;
32874;SDS011;40468;42.128;24.750;2023-05-10T04:59:59;12.07;;;5.95;;
32874;SDS011;40468;42.128;24.750;2023-05-10T05:01:31;12.85;;;5.72;;
32874;SDS011;40468;42.128;24.750;2023-05-10T05:03:04;14.85;;;6.20;;
32874;SDS011;40468;42.128;24.750;2023-05-10T05:04:36;17.13;;;6.65;;
32874;SDS011;40468;42.128;24.750;2023-05-10T05:06:08;11.02;;;5.70;;
32874;SDS011;40468;42.128;24.750;2023-05-10T05:07:40;9.48;;;5.55;;
32874;SDS011;40468;42.128;24.750;2023-05-10T05:09:12;11.38;;;6.20;;
32874;SDS011;40468;42.128;24.750;2023-05-10T05:10:45;11.60;;;5.82;;
32874;SDS011;40468;42.128;24.750;2023-05-10T05:12:20;9.45;;;5.00;;
32874;SDS011;40468;42.128;24.750;2023-05-10T05:13:52;8.73;;;4.93;;
32874;SDS011;40468;42.128;24.750;2023-05-10T05:15:24;12.98;;;5.63;;
32874;SDS011;40468;42.128;24.750;2023-05-10T05:16:56;14.88;;;5.80;;
32874;SDS011;40468;42.128;24.750;2023-05-10T05:18:28;13.65;;;5.13;;
32874;SDS011;40468;42.128;24.750;2023-05-10T05:20:01;13.18;;;5.72;;
32874;SDS011;40468;42.128;24.750;2023-05-10T05:21:33;10.38;;;5.68;;
32874;SDS011;40468;42.128;24.750;2023-05-10T05:23:05;13.80;;;6.65;;
32874;SDS011;40468;42.128;24.750;2023-05-10T05:24:37;12.93;;;5.65;;
32874;SDS011;40468;42.128;24.750;2023-05-10T05:26:11;13.32;;;5.63;;
32874;SDS011;40468;42.128;24.750;2023-05-10T05:27:43;11.52;;;6.63;;
32874;SDS011;40468;42.128;24.750;2023-05-10T05:29:15;11.30;;;6.18;;
32874;SDS011;40468;42.128;24.750;2023-05-10T05:30:46;14.63;;;6.82;;
32874;SDS011;40468;42.128;24.750;2023-05-10T05:32:18;12.65;;;6.28;;
32874;SDS011;40468;42.128;24.750;2023-05-10T05:33:50;11.30;;;5.90;;
32874;SDS011;40468;42.128;24.750;2023-05-10T05:35:22;15.38;;;6.00;;
32874;SDS011;40468;42.128;24.750;2023-05-10T05:36:55;13.75;;;6.65;;
32874;SDS011;40468;42.128;24.750;2023-05-10T05:38:26;10.30;;;5.95;;
32874;SDS011;40468;42.128;24.750;2023-05-10T05:39:58;11.02;;;6.97;;
32874;SDS011;40468;42.128;24.750;2023-05-10T05:41:33;12.93;;;6.60;;
32874;SDS011;40468;42.128;24.750;2023-05-10T05:43:05;12.20;;;6.03;;
32874;SDS011;40468;42.128;24.750;2023-05-10T05:44:38;13.53;;;5.63;;
32874;SDS011;40468;42.128;24.750;2023-05-10T05:46:10;12.30;;;5.95;;
32874;SDS011;40468;42.128;24.750;2023-05-10T05:47:42;10.48;;;5.43;;
32874;SDS011;40468;42.128;24.750;2023-05-10T05:49:14;12.18;;;5.97;;
32874;SDS011;40468;42.128;24.750;2023-05-10T05:50:46;13.38;;;7.90;;
32874;SDS011;40468;42.128;24.750;2023-05-10T05:52:18;15.98;;;7.25;;
32874;SDS011;40468;42.128;24.750;2023-05-10T05:53:51;17.05;;;7.70;;
32874;SDS011;40468;42.128;24.750;2023-05-10T05:55:23;15.98;;;9.27;;
32874;SDS011;40468;42.128;24.750;2023-05-10T05:56:57;15.30;;;9.27;;
32874;SDS011;40468;42.128;24.750;2023-05-10T05:58:30;17.95;;;8.55;;
32874;SDS011;40468;42.128;24.750;2023-05-10T06:00:02;19.58;;;9.32;;
32874;SDS011;40468;42.128;24.750;2023-05-10T06:01:35;17.13;;;9.38;;
32874;SDS011;40468;42.128;24.750;2023-05-10T06:03:07;14.00;;;8.15;;
32874;SDS011;40468;42.128;24.750;2023-05-10T06:04:39;13.35;;;6.95;;
32874;SDS011;40468;42.128;24.750;2023-05-10T06:06:11;17.75;;;7.00;;
32874;SDS011;40468;42.128;24.750;2023-05-10T06:07:45;12.18;;;6.40;;
32874;SDS011;40468;42.128;24.750;2023-05-10T06:09:20;15.70;;;7.22;;
32874;SDS011;40468;42.128;24.750;2023-05-10T06:10:53;12.63;;;6.70;;
32874;SDS011;40468;42.128;24.750;2023-05-10T06:12:27;21.40;;;7.57;;
32874;SDS011;40468;42.128;24.750;2023-05-10T06:14:00;14.85;;;6.95;;
32874;SDS011;40468;42.128;24.750;2023-05-10T06:15:32;13.85;;;6.60;;
32874;SDS011;40468;42.128;24.750;2023-05-10T06:17:04;12.85;;;7.78;;
32874;SDS011;40468;42.128;24.750;2023-05-10T06:18:37;15.38;;;7.10;;
32874;SDS011;40468;42.128;24.750;2023-05-10T06:20:09;11.93;;;6.22;;
32874;SDS011;40468;42.128;24.750;2023-05-10T06:21:41;17.08;;;7.38;;
32874;SDS011;40468;42.128;24.750;2023-05-10T06:23:14;15.05;;;6.38;;
32874;SDS011;40468;42.128;24.750;2023-05-10T06:24:45;11.60;;;6.03;;
32874;SDS011;40468;42.128;24.750;2023-05-10T06:26:17;13.13;;;6.22;;
32874;SDS011;40468;42.128;24.750;2023-05-10T06:27:52;15.20;;;6.63;;
32874;SDS011;40468;42.128;24.750;2023-05-10T06:29:27;13.07;;;6.10;;
32874;SDS011;40468;42.128;24.750;2023-05-10T06:31:00;10.77;;;5.95;;
32874;SDS011;40468;42.128;24.750;2023-05-10T06:32:32;12.68;;;6.60;;
32874;SDS011;40468;42.128;24.750;2023-05-10T06:34:04;17.77;;;7.85;;
32874;SDS011;40468;42.128;24.750;2023-05-10T06:35:38;13.48;;;5.88;;
32874;SDS011;40468;42.128;24.750;2023-05-10T06:37:10;14.02;;;6.18;;
32874;SDS011;40468;42.128;24.750;2023-05-10T06:38:42;12.45;;;6.60;;
32874;SDS011;40468;42.128;24.750;2023-05-10T06:40:14;15.80;;;6.00;;
32874;SDS011;40468;42.128;24.750;2023-05-10T06:41:46;10.45;;;5.32;;
32874;SDS011;40468;42.128;24.750;2023-05-10T06:43:19;12.40;;;6.15;;
32874;SDS011;40468;42.128;24.750;2023-05-10T06:44:52;11.75;;;6.00;;
32874;SDS011;40468;42.128;24.750;2023-05-10T06:46:24;13.97;;;5.33;;
32874;SDS011;40468;42.128;24.750;2023-05-10T06:47:56;13.50;;;5.80;;
32874;SDS011;40468;42.128;24.750;2023-05-10T06:49:28;11.75;;;4.85;;
32874;SDS011;40468;42.128;24.750;2023-05-10T06:51:00;13.60;;;5.28;;
32874;SDS011;40468;42.128;24.750;2023-05-10T06:52:32;23.60;;;5.47;;
32874;SDS011;40468;42.128;24.750;2023-05-10T06:54:05;11.02;;;5.57;;
32874;SDS011;40468;42.128;24.750;2023-05-10T06:55:37;8.10;;;4.80;;
32874;SDS011;40468;42.128;24.750;2023-05-10T06:57:09;15.32;;;4.97;;
32874;SDS011;40468;42.128;24.750;2023-05-10T06:58:42;9.23;;;4.10;;
32874;SDS011;40468;42.128;24.750;2023-05-10T07:00:17;12.30;;;5.30;;
32874;SDS011;40468;42.128;24.750;2023-05-10T07:01:50;11.07;;;4.90;;
32874;SDS011;40468;42.128;24.750;2023-05-10T07:03:22;10.95;;;4.90;;
32874;SDS011;40468;42.128;24.750;2023-05-10T07:04:54;9.98;;;4.68;;
32874;SDS011;40468;42.128;24.750;2023-05-10T07:06:26;6.75;;;4.03;;
32874;SDS011;40468;42.128;24.750;2023-05-10T07:07:59;9.90;;;4.68;;
32874;SDS011;40468;42.128;24.750;2023-05-10T07:09:31;12.00;;;4.90;;
32874;SDS011;40468;42.128;24.750;2023-05-10T07:11:03;8.80;;;4.30;;
32874;SDS011;40468;42.128;24.750;2023-05-10T07:12:37;8.38;;;4.47;;
32874;SDS011;40468;42.128;24.750;2023-05-10T07:14:11;11.98;;;4.07;;
32874;SDS011;40468;42.128;24.750;2023-05-10T07:15:43;13.93;;;5.78;;
32874;SDS011;40468;42.128;24.750;2023-05-10T07:17:15;9.77;;;4.47;;
32874;SDS011;40468;42.128;24.750;2023-05-10T07:18:47;10.88;;;6.15;;
32874;SDS011;40468;42.128;24.750;2023-05-10T07:20:20;6.68;;;3.78;;
32874;SDS011;40468;42.128;24.750;2023-05-10T07:21:52;13.10;;;4.15;;
32874;SDS011;40468;42.128;24.750;2023-05-10T07:23:24;12.80;;;4.75;;
32874;SDS011;40468;42.128;24.750;2023-05-10T07:24:56;9.65;;;4.45;;
32874;SDS011;40468;42.128;24.750;2023-05-10T07:26:28;9.88;;;4.07;;
32874;SDS011;40468;42.128;24.750;2023-05-10T07:28:00;9.95;;;4.00;;
32874;SDS011;40468;42.128;24.750;2023-05-10T07:29:34;14.23;;;4.13;;
32874;SDS011;40468;42.128;24.750;2023-05-10T07:31:06;7.95;;;3.95;;
32874;SDS011;40468;42.128;24.750;2023-05-10T07:32:38;8.18;;;4.18;;
32874;SDS011;40468;42.128;24.750;2023-05-10T07:34:12;12.65;;;4.40;;
32874;SDS011;40468;42.128;24.750;2023-05-10T07:35:44;8.43;;;3.75;;
32874;SDS011;40468;42.128;24.750;2023-05-10T07:37:16;14.95;;;4.00;;
32874;SDS011;40468;42.128;24.750;2023-05-10T07:38:48;7.70;;;3.58;;
32874;SDS011;40468;42.128;24.750;2023-05-10T07:40:21;7.53;;;4.20;;
32874;SDS011;40468;42.128;24.750;2023-05-10T07:41:53;7.55;;;4.63;;
32874;SDS011;40468;42.128;24.750;2023-05-10T07:43:25;11.93;;;5.20;;
32874;SDS011;40468;42.128;24.750;2023-05-10T07:44:59;9.20;;;4.80;;
32874;SDS011;40468;42.128;24.750;2023-05-10T07:46:31;5.03;;;3.63;;
32874;SDS011;40468;42.128;24.750;2023-05-10T07:48:06;11.85;;;4.72;;
32874;SDS011;40468;42.128;24.750;2023-05-10T07:49:46;8.52;;;3.35;;
32874;SDS011;40468;42.128;24.750;2023-05-10T07:51:20;7.20;;;3.80;;
32874;SDS011;40468;42.128;24.750;2023-05-10T07:52:52;7.45;;;3.78;;
32874;SDS011;40468;42.128;24.750;2023-05-10T07:54:24;7.43;;;3.63;;
32874;SDS011;40468;42.128;24.750;2023-05-10T07:55:57;6.15;;;3.50;;
32874;SDS011;40468;42.128;24.750;2023-05-10T07:57:30;5.93;;;2.95;;
32874;SDS011;40468;42.128;24.750;2023-05-10T07:59:02;7.15;;;3.30;;
32874;SDS011;40468;42.128;24.750;2023-05-10T08:00:38;6.15;;;3.53;;
32874;SDS011;40468;42.128;24.750;2023-05-10T08:02:11;6.57;;;3.78;;
32874;SDS011;40468;42.128;24.750;2023-05-10T08:03:43;10.07;;;4.32;;
32874;SDS011;40468;42.128;24.750;2023-05-10T08:05:15;6.32;;;3.47;;
32874;SDS011;40468;42.128;24.750;2023-05-10T08:06:48;6.53;;;3.40;;
32874;SDS011;40468;42.128;24.750;2023-05-10T08:08:20;7.57;;;3.40;;
32874;SDS011;40468;42.128;24.750;2023-05-10T08:09:54;6.80;;;3.38;;
32874;SDS011;40468;42.128;24.750;2023-05-10T08:11:26;6.28;;;3.00;;
32874;SDS011;40468;42.128;24.750;2023-05-10T08:12:58;10.20;;;3.63;;
32874;SDS011;40468;42.128;24.750;2023-05-10T08:14:30;11.27;;;3.30;;
32874;SDS011;40468;42.128;24.750;2023-05-10T08:16:04;9.93;;;3.78;;
32874;SDS011;40468;42.128;24.750;2023-05-10T08:17:39;7.13;;;3.20;;
32874;SDS011;40468;42.128;24.750;2023-05-10T08:19:13;10.90;;;4.40;;
32874;SDS011;40468;42.128;24.750;2023-05-10T08:20:49;15.77;;;4.00;;
32874;SDS011;40468;42.128;24.750;2023-05-10T08:22:21;7.03;;;3.60;;
32874;SDS011;40468;42.128;24.750;2023-05-10T08:23:53;8.48;;;3.35;;
32874;SDS011;40468;42.128;24.750;2023-05-10T08:25:25;9.18;;;3.17;;
32874;SDS011;40468;42.128;24.750;2023-05-10T08:26:57;10.82;;;3.45;;
32874;SDS011;40468;42.128;24.750;2023-05-10T08:28:29;4.47;;;2.78;;
32874;SDS011;40468;42.128;24.750;2023-05-10T08:30:02;6.00;;;3.00;;
32874;SDS011;40468;42.128;24.750;2023-05-10T08:31:35;9.77;;;3.43;;
32874;SDS011;40468;42.128;24.750;2023-05-10T08:33:08;4.68;;;2.83;;
32874;SDS011;40468;42.128;24.750;2023-05-10T08:34:41;11.80;;;2.80;;
32874;SDS011;40468;42.128;24.750;2023-05-10T08:36:13;7.20;;;3.00;;
32874;SDS011;40468;42.128;24.750;2023-05-10T08:37:50;8.95;;;3.17;;
32874;SDS011;40468;42.128;24.750;2023-05-10T08:39:22;7.10;;;3.55;;
32874;SDS011;40468;42.128;24.750;2023-05-10T08:40:54;8.43;;;3.15;;
32874;SDS011;40468;42.128;24.750;2023-05-10T08:42:28;6.15;;;3.22;;
32874;SDS011;40468;42.128;24.750;2023-05-10T08:44:03;9.93;;;3.03;;
32874;SDS011;40468;42.128;24.750;2023-05-10T08:45:36;5.47;;;2.50;;
32874;SDS011;40468;42.128;24.750;2023-05-10T08:47:11;6.60;;;3.00;;
32874;SDS011;40468;42.128;24.750;2023-05-10T08:48:47;5.72;;;2.80;;
32874;SDS011;40468;42.128;24.750;2023-05-10T08:50:20;8.23;;;3.05;;
32874;SDS011;40468;42.128;24.750;2023-05-10T08:51:54;10.73;;;2.88;;
32874;SDS011;40468;42.128;24.750;2023-05-10T08:53:27;5.28;;;3.13;;
32874;SDS011;40468;42.128;24.750;2023-05-10T08:56:32;5.30;;;3.15;;
32874;SDS011;40468;42.128;24.750;2023-05-10T08:58:05;8.45;;;3.13;;
32874;SDS011;40468;42.128;24.750;2023-05-10T08:59:37;8.27;;;3.93;;
32874;SDS011;40468;42.128;24.750;2023-05-10T09:01:10;6.70;;;3.50;;
32874;SDS011;40468;42.128;24.750;2023-05-10T09:02:45;7.75;;;3.47;;
32874;SDS011;40468;42.128;24.750;2023-05-10T09:04:19;7.15;;;3.70;;
32874;SDS011;40468;42.128;24.750;2023-05-10T09:05:52;14.85;;;6.90;;
32874;SDS011;40468;42.128;24.750;2023-05-10T09:07:25;13.57;;;6.90;;
32874;SDS011;40468;42.128;24.750;2023-05-10T09:08:58;9.73;;;5.47;;
32874;SDS011;40468;42.128;24.750;2023-05-10T09:10:31;6.97;;;3.83;;
32874;SDS011;40468;42.128;24.750;2023-05-10T09:12:04;5.80;;;3.95;;
32874;SDS011;40468;42.128;24.750;2023-05-10T09:13:37;7.25;;;3.10;;
32874;SDS011;40468;42.128;24.750;2023-05-10T09:15:09;7.03;;;3.60;;
32874;SDS011;40468;42.128;24.750;2023-05-10T09:16:44;7.82;;;3.85;;
32874;SDS011;40468;42.128;24.750;2023-05-10T09:18:18;5.57;;;3.60;;
32874;SDS011;40468;42.128;24.750;2023-05-10T09:21:28;8.60;;;3.95;;
32874;SDS011;40468;42.128;24.750;2023-05-10T09:24:33;8.38;;;3.58;;
32874;SDS011;40468;42.128;24.750;2023-05-10T09:26:07;11.88;;;3.17;;
32874;SDS011;40468;42.128;24.750;2023-05-10T09:27:39;8.45;;;3.50;;